createdAt,value
2018-02-13T15:13:21.603Z,7.43
2018-02-13T15:15:49.879Z,7.78
2018-02-13T15:18:30.108Z,7.55
2018-02-13T15:20:57.933Z,7.30
2018-02-13T15:23:25.839Z,6.70
2018-02-13T15:28:26.715Z,8.00
2018-02-13T15:30:54.397Z,9.40
2018-02-13T15:33:23.078Z,11.80
2018-02-13T15:35:51.430Z,11.90
2018-02-13T15:38:19.894Z,8.30
2018-02-13T15:40:48.383Z,7.75
2018-02-13T15:43:17.049Z,7.00
2018-02-13T15:45:46.610Z,6.60
2018-02-13T15:48:15.195Z,6.60
2018-02-13T15:50:43.649Z,6.12
2018-02-13T15:53:13.396Z,5.78
2018-02-13T15:55:42.211Z,5.53
2018-02-13T15:58:11.772Z,6.57
2018-02-13T16:00:39.988Z,7.75
2018-02-13T16:03:08.662Z,6.37
2018-02-13T16:05:37.300Z,6.97
2018-02-13T16:08:05.395Z,6.82
2018-02-13T16:10:43.880Z,6.45
2018-02-13T16:13:12.714Z,6.40
2018-02-13T16:15:40.484Z,6.03
2018-02-13T16:18:09.380Z,6.05
2018-02-13T16:20:39.961Z,27.23
2018-02-13T16:23:09.440Z,19.08
2018-02-13T16:25:37.889Z,9.80
2018-02-13T16:28:06.622Z,8.10
2018-02-13T16:30:34.332Z,7.60
2018-02-13T16:33:03.163Z,8.13
2018-02-13T16:35:31.291Z,8.88
2018-02-13T16:37:58.930Z,8.73
2018-02-13T16:40:27.476Z,9.52
2018-02-13T16:42:55.216Z,14.82
2018-02-13T16:45:22.884Z,18.33
2018-02-13T16:47:50.547Z,17.67
2018-02-13T16:50:18.182Z,13.98
2018-02-13T16:52:45.805Z,10.90
2018-02-13T16:55:13.418Z,12.90
2018-02-13T16:57:41.797Z,18.58
2018-02-13T17:00:09.400Z,19.10
2018-02-13T17:02:36.991Z,17.23
2018-02-13T17:05:04.586Z,19.77
2018-02-13T17:07:32.197Z,18.70
2018-02-13T17:10:00.653Z,19.50
2018-02-13T17:12:29.237Z,21.33
2018-02-13T17:14:57.598Z,24.55
2018-02-13T17:17:25.186Z,22.05
2018-02-13T17:19:53.547Z,20.42
2018-02-13T17:22:21.152Z,20.75
2018-02-13T17:24:48.795Z,19.25
2018-02-13T17:27:17.158Z,19.98
2018-02-13T17:29:44.788Z,16.77
2018-02-13T17:32:12.390Z,17.37
2018-02-13T17:34:40.023Z,22.50
2018-02-13T17:37:07.666Z,32.45
2018-02-13T17:39:35.294Z,22.35
2018-02-13T17:42:02.898Z,20.58
2018-02-13T17:44:30.499Z,26.33
2018-02-13T17:46:58.103Z,25.45
2018-02-13T17:49:26.471Z,14.00
2018-02-13T17:51:54.072Z,11.82
2018-02-13T17:54:21.687Z,8.48
2018-02-13T17:56:49.302Z,10.20
2018-02-13T17:59:16.913Z,9.15
2018-02-13T18:01:44.599Z,11.30
2018-02-13T18:04:12.682Z,17.48
2018-02-13T18:06:41.067Z,19.98
2018-02-13T18:09:09.489Z,17.55
2018-02-13T18:11:37.095Z,12.60
2018-02-13T18:14:04.731Z,15.98
2018-02-13T18:16:32.364Z,16.58
2018-02-13T18:19:00.731Z,21.85
2018-02-13T18:21:28.743Z,23.85
2018-02-13T18:23:56.717Z,24.40
2018-02-13T18:26:24.687Z,24.10
2018-02-13T18:28:52.295Z,20.20
2018-02-13T18:31:23.682Z,18.30
2018-02-13T18:36:33.862Z,18.48
2018-02-13T18:39:01.518Z,18.60
2018-02-13T18:41:29.099Z,18.62
2018-02-13T18:43:56.720Z,19.52
2018-02-13T18:46:24.338Z,20.40
2018-02-13T18:48:51.975Z,20.83
2018-02-13T18:51:20.348Z,19.92
2018-02-13T18:53:48.733Z,20.50
2018-02-13T18:56:17.097Z,21.00
2018-02-13T18:58:44.753Z,18.77
2018-02-13T19:01:12.365Z,19.55
2018-02-13T19:03:40.757Z,15.45
2018-02-13T19:06:08.395Z,18.50
2018-02-13T19:08:35.989Z,22.23
2018-02-13T19:11:03.617Z,20.17
2018-02-13T19:13:31.218Z,18.23
2018-02-13T19:15:58.824Z,23.40
2018-02-13T19:18:26.420Z,20.35
2018-02-13T19:20:54.030Z,18.45
2018-02-13T19:23:21.633Z,14.55
2018-02-13T19:25:49.246Z,12.70
2018-02-13T19:28:16.869Z,10.30
2018-02-13T19:30:44.646Z,9.95
2018-02-13T19:33:12.251Z,11.48
2018-02-13T19:35:39.846Z,13.65
2018-02-13T19:38:07.470Z,13.62
2018-02-13T19:40:35.107Z,15.73
2018-02-13T19:43:03.587Z,15.35
2018-02-13T19:45:31.208Z,14.02
2018-02-13T19:47:58.812Z,14.40
2018-02-13T19:50:26.778Z,14.85
2018-02-13T19:52:54.374Z,14.15
2018-02-13T19:55:22.745Z,14.95
2018-02-13T19:57:50.361Z,13.62
2018-02-13T20:00:17.967Z,13.07
2018-02-13T20:02:45.575Z,14.40
2018-02-13T20:05:13.170Z,12.20
2018-02-13T20:07:41.247Z,14.60
2018-02-13T20:10:08.844Z,15.00
2018-02-13T20:12:36.541Z,13.98
2018-02-13T20:15:04.883Z,13.88
2018-02-13T20:17:32.529Z,13.62
2018-02-13T20:20:00.195Z,14.18
2018-02-13T20:22:27.794Z,13.07
2018-02-13T20:24:55.422Z,15.90
2018-02-13T20:27:23.070Z,22.90
2018-02-13T20:29:54.668Z,19.25
2018-02-13T20:32:22.274Z,15.15
2018-02-13T20:34:49.874Z,13.38
2018-02-13T20:37:17.522Z,13.35
2018-02-13T20:39:45.166Z,21.60
2018-02-13T20:42:12.807Z,20.25
2018-02-13T20:44:40.436Z,19.50
2018-02-13T20:47:08.045Z,17.58
2018-02-13T20:49:35.676Z,15.15
2018-02-13T20:52:03.281Z,14.57
2018-02-13T20:54:31.634Z,14.18
2018-02-13T20:56:59.240Z,14.20
2018-02-13T20:59:27.599Z,18.62
2018-02-13T21:01:55.290Z,20.50
2018-02-13T21:04:23.647Z,19.92
2018-02-13T21:06:51.254Z,21.42
2018-02-13T21:09:18.866Z,20.00
2018-02-13T21:11:46.471Z,17.83
2018-02-13T21:14:14.075Z,16.95
2018-02-13T21:16:41.682Z,16.80
2018-02-13T21:19:10.047Z,14.15
2018-02-13T21:21:38.127Z,13.70
2018-02-13T21:24:05.733Z,14.80
2018-02-13T21:26:33.393Z,17.25
2018-02-13T21:29:00.992Z,15.40
2018-02-13T21:31:28.586Z,14.98
2018-02-13T21:33:57.027Z,14.80
2018-02-13T21:36:24.676Z,15.60
2018-02-13T21:38:52.271Z,17.70
2018-02-13T21:41:22.102Z,16.35
2018-02-13T21:43:49.707Z,14.70
2018-02-13T21:46:19.290Z,13.05
2018-02-13T21:48:46.910Z,12.18
2018-02-13T21:51:14.535Z,11.75
2018-02-13T21:53:42.159Z,11.75
2018-02-13T21:56:09.752Z,11.60
2018-02-13T21:58:37.404Z,10.43
2018-02-13T22:01:05.012Z,11.88
2018-02-13T22:03:33.370Z,10.90
2018-02-13T22:06:00.974Z,11.73
2018-02-13T22:08:28.581Z,10.95
2018-02-13T22:10:56.210Z,11.85
2018-02-13T22:13:23.806Z,10.75
2018-02-13T22:15:51.448Z,12.37
2018-02-13T22:18:19.408Z,12.25
2018-02-13T22:20:49.119Z,11.00
2018-02-13T22:23:16.732Z,10.90
2018-02-13T22:25:44.322Z,11.85
2018-02-13T22:28:13.762Z,11.18
2018-02-13T22:30:44.870Z,11.68
2018-02-13T22:33:13.493Z,11.35
2018-02-13T22:35:41.093Z,10.65
2018-02-13T22:38:08.751Z,11.85
2018-02-13T22:40:36.351Z,10.48
2018-02-13T22:43:05.147Z,11.57
2018-02-13T22:45:33.518Z,11.32
2018-02-13T22:48:01.749Z,10.82
2018-02-13T22:50:29.343Z,11.40
2018-02-13T22:52:58.024Z,11.20
2018-02-13T22:55:25.610Z,11.12
2018-02-13T22:57:53.576Z,12.00
2018-02-13T23:00:21.201Z,13.45
2018-02-13T23:02:49.138Z,14.10
2018-02-13T23:05:18.666Z,12.27
2018-02-13T23:07:47.023Z,13.10
2018-02-13T23:10:14.629Z,11.95
2018-02-13T23:12:42.227Z,12.55
2018-02-13T23:15:11.701Z,11.80
2018-02-13T23:17:39.639Z,11.57
2018-02-13T23:20:07.235Z,11.93
2018-02-13T23:22:37.058Z,11.50
2018-02-13T23:25:05.007Z,14.85
2018-02-13T23:27:33.363Z,13.85
2018-02-13T23:30:00.963Z,15.68
2018-02-13T23:32:30.256Z,16.62
2018-02-13T23:34:57.855Z,15.70
2018-02-13T23:37:26.086Z,14.90
2018-02-13T23:39:54.650Z,17.30
2018-02-13T23:42:22.241Z,16.00
2018-02-13T23:44:51.202Z,15.60
2018-02-13T23:47:19.434Z,15.85
2018-02-13T23:49:47.794Z,14.93
2018-02-13T23:52:15.399Z,15.43
2018-02-13T23:54:43.003Z,15.73
2018-02-13T23:57:10.602Z,14.98
2018-02-13T23:59:38.970Z,15.80
